createdAt,value
2017-10-19T00:01:48.822Z,99704.50
2017-10-19T00:04:14.758Z,99703.66
2017-10-19T00:06:40.743Z,99700.28
2017-10-19T00:09:06.692Z,99704.45
2017-10-19T00:11:32.666Z,99703.64
2017-10-19T00:13:58.627Z,99704.97
2017-10-19T00:16:24.563Z,99703.27
2017-10-19T00:18:50.515Z,99703.24
2017-10-19T00:21:16.495Z,99705.41
2017-10-19T00:23:42.460Z,99710.51
2017-10-19T00:26:08.404Z,99705.88
2017-10-19T00:28:34.345Z,99706.25
2017-10-19T00:31:00.287Z,99707.94
2017-10-19T00:33:26.232Z,99706.69
2017-10-19T00:35:52.180Z,99708.37
2017-10-19T00:38:18.137Z,99710.91
2017-10-19T00:40:44.083Z,99712.15
2017-10-19T00:43:10.024Z,99716.38
2017-10-19T00:45:35.975Z,99720.58
2017-10-19T00:48:01.947Z,99710.48
2017-10-19T00:50:27.904Z,99710.07
2017-10-19T00:52:53.858Z,99710.07
2017-10-19T00:55:19.839Z,99706.72
2017-10-19T00:57:45.799Z,99707.97
2017-10-19T01:00:11.752Z,99710.06
2017-10-19T01:02:37.723Z,99707.98
2017-10-19T01:05:03.669Z,99707.13
2017-10-19T01:07:29.623Z,99702.52
2017-10-19T01:09:55.570Z,99708.00
2017-10-19T01:12:21.507Z,99672.17
2017-10-19T01:14:47.452Z,99709.66
2017-10-19T01:17:13.411Z,99710.92
2017-10-19T01:19:39.347Z,99710.08
2017-10-19T01:22:05.302Z,99713.88
2017-10-19T01:24:31.263Z,99704.61
2017-10-19T01:26:57.231Z,99710.05
2017-10-19T01:29:23.172Z,99707.14
2017-10-19T01:31:49.131Z,99708.80
2017-10-19T01:34:15.076Z,99709.21
2017-10-19T01:36:41.007Z,99711.78
2017-10-19T01:39:06.968Z,99712.59
2017-10-19T01:41:32.917Z,99708.41
2017-10-19T01:43:58.879Z,99707.98
2017-10-19T01:46:24.835Z,99711.77
2017-10-19T01:48:50.777Z,99709.23
2017-10-19T01:51:16.701Z,99708.84
2017-10-19T01:53:42.634Z,99707.98
2017-10-19T01:56:08.559Z,99717.22
2017-10-19T01:58:34.499Z,99702.06
2017-10-19T02:01:00.441Z,99708.39
2017-10-19T02:03:26.372Z,99709.23
2017-10-19T02:05:52.359Z,99711.77
2017-10-19T02:08:18.298Z,99713.00
2017-10-19T02:10:44.274Z,99716.81
2017-10-19T02:13:10.195Z,99722.26
2017-10-19T02:15:36.135Z,99716.80
2017-10-19T02:18:02.079Z,99717.63
2017-10-19T02:20:28.069Z,99723.13
2017-10-19T02:22:54.025Z,99718.89
2017-10-19T02:25:19.975Z,99723.11
2017-10-19T02:27:45.953Z,99723.09
2017-10-19T02:30:11.896Z,99722.69
2017-10-19T02:32:37.845Z,99722.26
2017-10-19T02:35:03.825Z,99725.61
2017-10-19T02:37:29.773Z,99735.31
2017-10-19T02:39:55.744Z,99729.77
2017-10-19T02:42:21.714Z,99732.66
2017-10-19T02:44:47.704Z,99736.12
2017-10-19T02:47:13.639Z,99729.76
2017-10-19T02:49:39.581Z,99732.72
2017-10-19T02:52:05.555Z,99728.95
2017-10-19T02:54:31.493Z,99727.70
2017-10-19T02:56:57.504Z,99728.48
2017-10-19T02:59:23.450Z,99733.17
2017-10-19T03:01:49.404Z,99729.77
2017-10-19T03:04:15.353Z,99731.84
2017-10-19T03:06:41.293Z,99735.21
2017-10-19T03:09:07.248Z,99733.11
2017-10-19T03:11:33.245Z,99728.92
2017-10-19T03:13:59.197Z,99726.80
2017-10-19T03:16:25.153Z,99733.93
2017-10-19T03:18:51.088Z,99738.58
2017-10-19T03:21:17.031Z,99734.80
2017-10-19T03:23:43.007Z,99742.42
2017-10-19T03:26:08.941Z,99742.80
2017-10-19T03:28:34.891Z,99742.34
2017-10-19T03:31:00.821Z,99745.30
2017-10-19T03:33:26.785Z,99742.77
2017-10-19T03:35:52.743Z,99740.21
2017-10-19T03:38:18.691Z,99742.32
2017-10-19T03:40:44.647Z,99739.01
2017-10-19T03:43:10.603Z,99733.97
2017-10-19T03:45:36.583Z,99733.98
2017-10-19T03:48:02.599Z,99742.81
2017-10-19T03:50:28.602Z,99744.45
2017-10-19T03:52:54.536Z,99745.32
2017-10-19T03:55:20.562Z,99744.91
2017-10-19T03:57:46.487Z,99745.73
2017-10-19T04:00:12.434Z,99740.27
2017-10-19T04:02:38.423Z,99741.15
2017-10-19T04:05:09.169Z,99743.21
2017-10-19T04:07:37.337Z,99737.32
2017-10-19T04:10:03.325Z,99736.48
2017-10-19T04:12:29.270Z,99736.88
2017-10-19T04:14:56.265Z,99738.99
2017-10-19T04:17:22.304Z,99742.37
2017-10-19T04:19:48.330Z,99730.95
2017-10-19T04:22:14.277Z,99733.09
2017-10-19T04:24:40.228Z,99728.02
2017-10-19T04:27:06.184Z,99723.76
2017-10-19T04:29:32.147Z,99722.95
2017-10-19T04:31:58.084Z,99729.58
2017-10-19T04:34:25.087Z,99727.49
2017-10-19T04:36:51.068Z,99729.64
2017-10-19T04:39:17.033Z,99729.25
2017-10-19T04:41:43.008Z,99729.23
2017-10-19T04:44:08.954Z,99737.95
2017-10-19T04:46:35.000Z,99740.55
2017-10-19T04:49:00.932Z,99731.78
2017-10-19T04:51:26.948Z,99734.68
2017-10-19T04:53:52.904Z,99731.70
2017-10-19T04:56:18.834Z,99728.30
2017-10-19T04:58:44.827Z,99728.73
2017-10-19T05:01:10.824Z,99723.72
2017-10-19T05:03:36.781Z,99725.81
2017-10-19T05:06:02.728Z,99727.53
2017-10-19T05:08:28.684Z,99729.20
2017-10-19T05:10:54.640Z,99732.97
2017-10-19T05:13:20.633Z,99735.94
2017-10-19T05:15:46.647Z,99732.49
2017-10-19T05:18:12.608Z,99733.44
2017-10-19T05:20:38.565Z,99738.75
2017-10-19T05:23:04.525Z,99733.16
2017-10-19T05:25:30.478Z,99742.55
2017-10-19T05:27:56.442Z,99740.44
2017-10-19T05:30:22.438Z,99743.88
2017-10-19T05:32:48.380Z,99740.45
2017-10-19T05:35:14.352Z,99743.06
2017-10-19T05:37:40.317Z,99742.58
2017-10-19T05:40:06.308Z,99749.20
2017-10-19T05:42:32.317Z,99752.69
2017-10-19T05:44:58.272Z,99749.81
2017-10-19T05:47:24.271Z,99754.39
2017-10-19T05:49:50.247Z,99748.56
2017-10-19T05:52:16.211Z,99755.74
2017-10-19T05:54:42.200Z,99760.34
2017-10-19T05:57:08.157Z,99756.56
2017-10-19T05:59:34.106Z,99759.06
2017-10-19T06:02:00.060Z,99759.06
2017-10-19T06:04:26.009Z,99755.69
2017-10-19T06:06:51.989Z,99762.07
2017-10-19T06:09:17.968Z,99762.41
2017-10-19T06:11:43.915Z,99765.80
2017-10-19T06:14:09.944Z,99768.41
2017-10-19T06:16:35.890Z,99773.91
2017-10-19T06:19:01.840Z,99773.09
2017-10-19T06:21:27.796Z,99781.93
2017-10-19T06:23:53.763Z,99780.60
2017-10-19T06:26:19.816Z,99783.24
2017-10-19T06:28:45.793Z,99788.72
2017-10-19T06:31:11.766Z,99785.39
2017-10-19T06:33:37.702Z,99786.72
2017-10-19T06:36:03.659Z,99790.06
2017-10-19T06:38:29.598Z,99797.70
2017-10-19T06:40:55.541Z,99799.34
2017-10-19T06:43:21.518Z,99809.91
2017-10-19T06:45:47.483Z,99807.40
2017-10-19T06:48:13.420Z,99808.65
2017-10-19T06:50:39.359Z,99804.82
2017-10-19T06:53:05.337Z,99801.00
2017-10-19T06:55:31.368Z,99806.92
2017-10-19T07:00:29.805Z,99809.80
2017-10-19T07:02:55.735Z,99808.98
2017-10-19T07:05:21.680Z,99814.02
2017-10-19T07:07:47.640Z,99816.45
2017-10-19T07:10:13.574Z,99815.63
2017-10-19T07:12:39.508Z,99816.89
2017-10-19T07:15:05.438Z,99820.55
2017-10-19T07:17:31.419Z,99817.55
2017-10-19T07:19:57.355Z,99815.87
2017-10-19T07:22:23.301Z,99822.19
2017-10-19T07:24:49.263Z,99813.16
2017-10-19T07:27:15.190Z,99815.38
2017-10-19T07:29:41.367Z,99819.09
2017-10-19T07:32:07.323Z,99815.61
2017-10-19T07:34:33.249Z,99817.47
2017-10-19T07:36:59.219Z,99819.49
2017-10-19T07:39:25.146Z,99818.37
2017-10-19T07:41:51.143Z,99829.17
2017-10-19T07:44:17.099Z,99825.16
2017-10-19T07:46:43.029Z,99823.83
2017-10-19T07:49:08.983Z,99824.43
2017-10-19T07:51:34.901Z,99828.33
2017-10-19T07:54:00.966Z,99829.78
2017-10-19T07:56:26.917Z,99834.31
2017-10-19T07:58:52.855Z,99835.61
2017-10-19T08:01:18.799Z,99831.18
2017-10-19T08:03:47.379Z,99836.03
2017-10-19T08:06:13.329Z,99831.95
2017-10-19T08:08:39.280Z,99837.61
2017-10-19T08:11:05.220Z,99836.34
2017-10-19T08:13:31.155Z,99832.55
2017-10-19T08:15:57.103Z,99836.00
2017-10-19T08:18:23.055Z,99828.33
2017-10-19T08:20:49.066Z,99827.79
2017-10-19T08:23:15.039Z,99831.08
2017-10-19T08:25:41.015Z,99833.69
2017-10-19T08:28:06.960Z,99839.59
2017-10-19T08:30:32.981Z,99840.72
2017-10-19T08:32:58.944Z,99846.33
2017-10-19T08:35:24.903Z,99839.44
2017-10-19T08:37:50.865Z,99841.39
2017-10-19T08:40:16.795Z,99843.61
2017-10-19T08:42:42.745Z,99842.23
2017-10-19T08:45:08.691Z,99847.64
2017-10-19T08:47:34.619Z,99845.91
2017-10-19T08:50:00.571Z,99843.59
2017-10-19T08:52:26.535Z,99841.06
2017-10-19T08:54:52.541Z,99841.19
2017-10-19T08:57:18.516Z,99839.57
2017-10-19T08:59:44.454Z,99841.03
2017-10-19T09:02:10.409Z,99840.21
2017-10-19T09:04:36.339Z,99836.78
2017-10-19T09:07:02.311Z,99836.62
2017-10-19T09:09:28.251Z,99844.51
2017-10-19T09:11:54.191Z,99839.42
2017-10-19T09:14:20.128Z,99836.44
2017-10-19T09:16:46.252Z,99843.13
2017-10-19T09:19:12.209Z,99839.34
2017-10-19T09:21:38.131Z,99838.98
2017-10-19T09:24:04.115Z,99838.80
2017-10-19T09:26:30.085Z,99840.50
2017-10-19T09:28:56.014Z,99835.80
2017-10-19T09:31:21.955Z,99837.00
2017-10-19T09:33:47.946Z,99845.35
2017-10-19T09:36:13.887Z,99844.88
2017-10-19T09:38:39.821Z,99840.02
2017-10-19T09:41:05.757Z,99844.48
2017-10-19T09:43:31.683Z,99839.28
2017-10-19T09:45:57.649Z,99835.25
2017-10-19T09:48:23.596Z,99839.02
2017-10-19T09:50:49.537Z,99841.44
2017-10-19T09:53:15.475Z,99839.28
2017-10-19T09:55:41.441Z,99829.11
2017-10-19T09:58:07.373Z,99843.23
2017-10-19T10:00:33.329Z,99835.52
2017-10-19T10:02:59.265Z,99831.15
2017-10-19T10:05:25.211Z,99832.87
2017-10-19T10:07:51.147Z,99828.98
2017-10-19T10:10:17.127Z,99830.67
2017-10-19T10:12:43.093Z,99829.05
2017-10-19T10:15:09.023Z,99834.86
2017-10-19T10:17:34.967Z,99831.81
2017-10-19T10:20:00.894Z,99838.12
2017-10-19T10:22:26.855Z,99834.68
2017-10-19T10:24:52.807Z,99830.92
2017-10-19T10:27:18.744Z,99835.58
2017-10-19T10:29:44.707Z,99834.20
2017-10-19T10:32:10.627Z,99834.23
2017-10-19T10:34:36.584Z,99833.91
2017-10-19T10:37:02.547Z,99835.88
2017-10-19T10:39:28.487Z,99829.88
2017-10-19T10:41:54.411Z,99822.38
2017-10-19T10:44:20.358Z,99826.80
2017-10-19T10:46:46.349Z,99824.76
2017-10-19T10:49:12.279Z,99817.86
2017-10-19T10:51:38.207Z,99817.91
2017-10-19T10:54:04.193Z,99816.13
2017-10-19T10:56:30.183Z,99820.97
2017-10-19T10:58:56.191Z,99816.47
2017-10-19T11:01:22.157Z,99811.34
2017-10-19T11:03:48.117Z,99808.28
2017-10-19T11:06:14.088Z,99808.31
2017-10-19T11:08:40.039Z,99803.19
2017-10-19T11:11:05.987Z,99800.95
2017-10-19T11:13:31.911Z,99796.67
2017-10-19T11:15:57.881Z,99808.13
2017-10-19T11:18:23.811Z,99806.80
2017-10-19T11:20:49.748Z,99808.04
2017-10-19T11:23:15.685Z,99801.28
2017-10-19T11:25:41.677Z,99791.91
2017-10-19T11:28:07.619Z,99800.67
2017-10-19T11:30:33.559Z,99790.81
2017-10-19T11:32:59.523Z,99789.50
2017-10-19T11:35:25.463Z,99788.66
2017-10-19T11:37:51.426Z,99784.64
2017-10-19T11:40:17.377Z,99785.98
2017-10-19T11:42:43.348Z,99782.94
2017-10-19T11:45:09.309Z,99784.64
2017-10-19T11:47:35.241Z,99778.98
2017-10-19T11:50:01.185Z,99778.95
2017-10-19T11:52:27.121Z,99773.56
2017-10-19T11:54:53.046Z,99775.75
2017-10-19T11:57:19.003Z,99769.25
2017-10-19T11:59:44.951Z,99762.25
2017-10-19T12:02:10.900Z,99754.70
2017-10-19T12:04:36.851Z,99752.87
2017-10-19T12:07:02.803Z,99761.36
2017-10-19T12:09:28.869Z,99753.22
2017-10-19T12:11:54.842Z,99757.16
2017-10-19T12:14:20.813Z,99756.76
2017-10-19T12:16:46.751Z,99760.13
2017-10-19T12:19:12.703Z,99763.45
2017-10-19T12:21:39.713Z,99759.10
2017-10-19T12:24:05.649Z,99753.72
2017-10-19T12:26:31.611Z,99752.30
2017-10-19T12:28:57.578Z,99756.98
2017-10-19T12:31:23.525Z,99751.49
2017-10-19T12:33:49.464Z,99741.30
2017-10-19T12:36:15.415Z,99746.32
2017-10-19T12:38:41.363Z,99744.16
2017-10-19T12:41:07.309Z,99745.51
2017-10-19T12:43:33.241Z,99744.63
2017-10-19T12:45:59.253Z,99745.55
2017-10-19T12:48:25.182Z,99750.14
2017-10-19T12:50:51.114Z,99749.15
2017-10-19T12:53:17.071Z,99747.41
2017-10-19T12:55:43.061Z,99751.42
2017-10-19T12:58:08.997Z,99745.82
2017-10-19T13:00:34.975Z,99748.16
2017-10-19T13:03:00.937Z,99749.30
2017-10-19T13:05:26.887Z,99746.31
2017-10-19T13:07:52.837Z,99743.77
2017-10-19T13:10:18.830Z,99741.61
2017-10-19T13:12:44.797Z,99742.92
2017-10-19T13:15:10.771Z,99750.07
2017-10-19T13:17:36.699Z,99752.13
2017-10-19T13:20:02.641Z,99742.89
2017-10-19T13:22:28.587Z,99748.48
2017-10-19T13:24:54.524Z,99746.31
2017-10-19T13:27:20.519Z,99753.58
2017-10-19T13:29:46.459Z,99747.42
2017-10-19T13:32:12.399Z,99750.00
2017-10-19T13:34:38.328Z,99747.06
2017-10-19T13:37:04.279Z,99749.61
2017-10-19T13:39:30.217Z,99738.98
2017-10-19T13:41:56.141Z,99740.23
2017-10-19T13:44:22.083Z,99738.08
2017-10-19T13:46:48.040Z,99742.45
2017-10-19T13:49:13.993Z,99742.91
2017-10-19T13:51:39.985Z,99742.20
2017-10-19T13:54:05.927Z,99738.34
2017-10-19T13:56:31.898Z,99745.14
2017-10-19T13:58:57.833Z,99736.30
2017-10-19T14:01:23.795Z,99729.07
2017-10-19T14:03:49.735Z,99744.19
2017-10-19T14:06:15.669Z,99734.66
2017-10-19T14:08:41.613Z,99737.63
2017-10-19T14:11:07.532Z,99736.49
2017-10-19T14:13:33.466Z,99738.12
2017-10-19T14:15:59.438Z,99730.55
2017-10-19T14:18:25.364Z,99735.25
2017-10-19T14:20:51.303Z,99735.35
2017-10-19T14:23:17.265Z,99736.72
2017-10-19T14:25:43.228Z,99730.22
2017-10-19T14:28:09.175Z,99726.14
2017-10-19T14:30:35.134Z,99729.44
2017-10-19T14:33:01.087Z,99733.33
2017-10-19T14:35:27.023Z,99739.66
2017-10-19T14:37:52.963Z,99742.70
2017-10-19T14:40:18.921Z,99733.39
2017-10-19T14:42:44.870Z,99741.06
2017-10-19T14:45:10.949Z,99735.28
2017-10-19T14:47:36.892Z,99736.13
2017-10-19T14:50:02.840Z,99736.43
2017-10-19T14:52:28.785Z,99735.70
2017-10-19T14:54:54.729Z,99736.59
2017-10-19T14:57:20.728Z,99731.56
2017-10-19T14:59:46.666Z,99733.26
2017-10-19T15:02:12.596Z,99726.83
2017-10-19T15:04:38.600Z,99728.71
2017-10-19T15:07:04.550Z,99730.47
2017-10-19T15:09:30.513Z,99735.56
2017-10-19T15:11:56.448Z,99740.38
2017-10-19T15:14:22.383Z,99731.47
2017-10-19T15:16:48.337Z,99738.41
2017-10-19T15:19:14.265Z,99734.31
2017-10-19T15:21:40.332Z,99738.10
2017-10-19T15:24:06.388Z,99735.05
2017-10-19T15:26:32.445Z,99732.56
2017-10-19T15:28:58.409Z,99739.09
2017-10-19T15:31:24.377Z,99731.52
2017-10-19T15:33:50.360Z,99734.04
2017-10-19T15:36:16.296Z,99735.81
2017-10-19T15:38:42.255Z,99737.57
2017-10-19T15:41:08.185Z,99742.42
2017-10-19T15:43:34.129Z,99739.52
2017-10-19T15:46:00.063Z,99733.44
2017-10-19T15:48:26.005Z,99729.73
2017-10-19T15:50:52.027Z,99731.45
2017-10-19T15:53:17.969Z,99733.20
2017-10-19T15:55:43.973Z,99730.27
2017-10-19T15:58:09.925Z,99738.79
2017-10-19T16:00:35.856Z,99738.63
2017-10-19T16:03:01.843Z,99741.87
2017-10-19T16:05:27.770Z,99752.48
2017-10-19T16:07:53.705Z,99745.05
2017-10-19T16:10:19.628Z,99747.88
2017-10-19T16:12:45.586Z,99754.09
2017-10-19T16:15:11.515Z,99757.27
2017-10-19T16:17:37.496Z,99759.39
2017-10-19T16:20:03.498Z,99758.63
2017-10-19T16:22:29.465Z,99754.03
2017-10-19T16:24:55.481Z,99757.34
2017-10-19T16:27:21.433Z,99756.80
2017-10-19T16:29:47.421Z,99754.38
2017-10-19T16:32:13.372Z,99754.02
2017-10-19T16:34:39.322Z,99746.52
2017-10-19T16:37:05.261Z,99751.63
2017-10-19T16:39:31.212Z,99757.42
2017-10-19T16:42:01.552Z,99754.21
2017-10-19T16:44:27.864Z,99761.77
2017-10-19T16:46:54.559Z,99764.59
2017-10-19T16:49:21.481Z,99764.72
2017-10-19T16:51:47.520Z,99772.44
2017-10-19T16:54:13.470Z,99767.00
2017-10-19T16:56:39.422Z,99762.88
2017-10-19T16:59:05.376Z,99765.00
2017-10-19T17:01:31.355Z,99764.80
2017-10-19T17:03:57.309Z,99759.91
2017-10-19T17:06:23.291Z,99763.97
2017-10-19T17:08:49.248Z,99763.70
2017-10-19T17:11:15.371Z,99762.16
2017-10-19T17:13:41.313Z,99764.56
2017-10-19T17:16:07.264Z,99766.92
2017-10-19T17:18:33.213Z,99771.91
2017-10-19T17:20:59.160Z,99771.78
2017-10-19T17:23:25.100Z,99770.91
2017-10-19T17:25:51.160Z,99771.87
2017-10-19T17:28:17.128Z,99774.89
2017-10-19T17:30:43.399Z,99772.34
2017-10-19T17:33:09.439Z,99772.31
2017-10-19T17:35:35.417Z,99761.81
2017-10-19T17:38:01.398Z,99772.36
2017-10-19T17:40:27.399Z,99775.56
2017-10-19T17:42:53.418Z,99781.23
2017-10-19T17:45:19.377Z,99751.49
2017-10-19T17:47:45.432Z,99774.47
2017-10-19T17:50:11.384Z,99769.91
2017-10-19T17:52:37.335Z,99762.43
2017-10-19T17:55:03.290Z,99769.91
2017-10-19T17:57:29.285Z,99769.07
2017-10-19T17:59:55.226Z,99770.53
2017-10-19T18:02:21.199Z,99770.00
2017-10-19T18:04:47.152Z,99761.19
2017-10-19T18:07:13.121Z,99757.11
2017-10-19T18:09:39.063Z,99752.57
2017-10-19T18:12:05.004Z,99765.59
2017-10-19T18:14:30.940Z,99753.20
2017-10-19T18:16:56.895Z,99763.94
2017-10-19T18:19:22.830Z,99768.03
2017-10-19T18:21:48.885Z,99766.38
2017-10-19T18:24:14.816Z,99771.98
2017-10-19T18:26:40.899Z,99771.55
2017-10-19T18:29:06.879Z,99771.06
2017-10-19T18:31:32.829Z,99769.73
2017-10-19T18:33:59.316Z,99767.05
2017-10-19T18:36:25.280Z,99770.20
2017-10-19T18:38:51.220Z,99783.91
2017-10-19T18:41:17.180Z,99772.80
2017-10-19T18:43:43.129Z,99774.61
2017-10-19T18:46:09.230Z,99773.39
2017-10-19T18:48:35.162Z,99768.68
2017-10-19T18:51:01.119Z,99773.69
2017-10-19T18:53:27.073Z,99771.80
2017-10-19T18:55:53.048Z,99768.64
2017-10-19T18:58:19.045Z,99770.02
2017-10-19T19:00:45.108Z,99768.48
2017-10-19T19:03:11.056Z,99771.14
2017-10-19T19:05:37.004Z,99770.10
2017-10-19T19:08:02.977Z,99768.75
2017-10-19T19:10:28.958Z,99768.20
2017-10-19T19:12:54.999Z,99772.10
2017-10-19T19:15:20.945Z,99762.33
2017-10-19T19:17:46.890Z,99753.90
2017-10-19T19:20:12.885Z,99758.58
2017-10-19T19:22:38.849Z,99767.07
2017-10-19T19:25:04.822Z,99766.77
2017-10-19T19:27:30.844Z,99762.91
2017-10-19T19:29:56.850Z,99770.51
2017-10-19T19:32:22.806Z,99768.45
2017-10-19T19:34:48.788Z,99769.25
2017-10-19T19:37:14.758Z,99772.56
2017-10-19T19:39:40.692Z,99779.70
2017-10-19T19:42:06.664Z,99775.96
2017-10-19T19:44:32.720Z,99773.02
2017-10-19T19:46:58.673Z,99769.73
2017-10-19T19:49:24.601Z,99779.08
2017-10-19T19:51:50.528Z,99773.53
2017-10-19T19:54:16.484Z,99774.79
2017-10-19T19:56:42.472Z,99774.34
2017-10-19T19:59:08.438Z,99780.64
2017-10-19T20:01:34.381Z,99785.64
2017-10-19T20:04:00.328Z,99777.72
2017-10-19T20:06:26.278Z,99781.94
2017-10-19T20:08:52.233Z,99784.39
2017-10-19T20:11:18.162Z,99785.38
2017-10-19T20:13:44.094Z,99779.37
2017-10-19T20:16:10.036Z,99786.64
2017-10-19T20:18:36.005Z,99783.12
2017-10-19T20:21:01.934Z,99787.84
2017-10-19T20:23:27.874Z,99789.08
2017-10-19T20:25:53.828Z,99786.55
2017-10-19T20:28:19.818Z,99793.33
2017-10-19T20:30:45.764Z,99789.58
2017-10-19T20:33:11.687Z,99790.27
2017-10-19T20:35:37.624Z,99797.13
2017-10-19T20:38:03.604Z,99789.04
2017-10-19T20:40:29.592Z,99784.75
2017-10-19T20:42:55.554Z,99779.73
2017-10-19T20:45:21.488Z,99785.56
2017-10-19T20:47:47.432Z,99784.38
2017-10-19T20:50:13.436Z,99783.16
2017-10-19T20:52:39.393Z,99776.88
2017-10-19T20:55:05.330Z,99786.50
2017-10-19T20:57:31.251Z,99786.10
2017-10-19T20:59:57.246Z,99787.77
2017-10-19T21:02:23.184Z,99782.34
2017-10-19T21:04:49.146Z,99785.65
2017-10-19T21:07:15.206Z,99786.09
2017-10-19T21:09:41.172Z,99782.34
2017-10-19T21:12:07.125Z,99785.59
2017-10-19T21:14:33.079Z,99783.94
2017-10-19T21:16:59.007Z,99778.45
2017-10-19T21:19:24.928Z,99772.61
2017-10-19T21:21:50.884Z,99778.47
2017-10-19T21:24:16.855Z,99779.69
2017-10-19T21:26:42.796Z,99781.31
2017-10-19T21:29:08.732Z,99777.58
2017-10-19T21:31:34.668Z,99776.41
2017-10-19T21:34:00.607Z,99774.23
2017-10-19T21:36:26.590Z,99773.29
2017-10-19T21:38:52.521Z,99766.75
2017-10-19T21:41:18.456Z,99767.83
2017-10-19T21:43:44.392Z,99765.69
2017-10-19T21:46:10.349Z,99757.73
2017-10-19T21:48:36.297Z,99756.33
2017-10-19T21:51:02.243Z,99753.83
2017-10-19T21:53:28.179Z,99753.14
2017-10-19T21:55:54.115Z,99747.68
2017-10-19T21:58:20.044Z,99744.27
2017-10-19T22:00:45.978Z,99737.78
2017-10-19T22:03:11.907Z,99733.73
2017-10-19T22:05:37.843Z,99739.67
2017-10-19T22:08:03.783Z,99735.66
2017-10-19T22:10:29.717Z,99732.84
2017-10-19T22:12:55.653Z,99727.31
2017-10-19T22:15:21.575Z,99729.51
2017-10-19T22:17:47.499Z,99728.20
2017-10-19T22:20:13.559Z,99727.31
2017-10-19T22:22:39.491Z,99723.84
2017-10-19T22:25:05.435Z,99726.51
2017-10-19T22:27:31.357Z,99716.62
2017-10-19T22:29:57.287Z,99716.78
2017-10-19T22:32:23.328Z,99719.70
2017-10-19T22:34:49.257Z,99724.01
2017-10-19T22:37:15.230Z,99720.58
2017-10-19T22:39:41.166Z,99714.26
2017-10-19T22:42:07.099Z,99710.91
2017-10-19T22:44:33.025Z,99717.97
2017-10-19T22:46:58.985Z,99715.86
2017-10-19T22:49:24.945Z,99715.58
2017-10-19T22:51:50.894Z,99718.02
2017-10-19T22:54:16.833Z,99712.97
2017-10-19T22:56:42.757Z,99718.80
2017-10-19T22:59:08.707Z,99710.95
2017-10-19T23:01:34.646Z,99713.09
2017-10-19T23:04:00.600Z,99715.61
2017-10-19T23:06:26.520Z,99707.60
2017-10-19T23:08:52.447Z,99706.70
2017-10-19T23:11:18.379Z,99707.98
2017-10-19T23:13:44.297Z,99705.42
2017-10-19T23:16:10.257Z,99697.09
2017-10-19T23:18:36.194Z,99699.50
2017-10-19T23:21:02.129Z,99703.23
2017-10-19T23:23:28.056Z,99704.16
2017-10-19T23:25:53.989Z,99701.59
2017-10-19T23:28:19.959Z,99708.92
2017-10-19T23:30:45.905Z,99702.98
2017-10-19T23:33:11.829Z,99702.59
2017-10-19T23:35:37.787Z,99697.80
2017-10-19T23:38:03.746Z,99698.63
2017-10-19T23:40:29.678Z,99704.22
2017-10-19T23:42:55.606Z,99704.31
2017-10-19T23:45:21.547Z,99709.34
2017-10-19T23:47:47.524Z,99716.09
2017-10-19T23:50:13.451Z,99714.52
2017-10-19T23:52:39.385Z,99717.06
2017-10-19T23:55:05.323Z,99710.29
2017-10-19T23:57:31.251Z,99711.98
2017-10-19T23:59:57.198Z,99710.69
